Time;durP1;ratioP1;P1;durP2;ratioP2;P2;SDS_P1;SDS_P2;PMS_P1;PMS_P2;Temp;Humidity;BMP_temperature;BMP_pressure;BME280_temperature;BME280_humidity;BME280_pressure;Samples;Min_cycle;Max_cycle;Signal;HPM_P1;HPM_P2
2022/06/02 00:01:43;;;;;;;15.03;6.03;;;;;;;20.98;61.40;100299.00;1713448;83;21051;-71
2022/06/02 00:04:30;;;;;;;11.48;6.40;;;;;;;20.95;61.56;100302.08;1713712;83;21015;-71
2022/06/02 00:07:32;;;;;;;12.50;6.20;;;;;;;20.91;61.60;100298.09;1708371;83;21088;-72
2022/06/02 00:10:07;;;;;;;9.35;5.90;;;;;;;20.87;61.72;100298.17;1708081;83;21051;-70
2022/06/02 00:12:49;;;;;;;10.15;6.28;;;;;;;20.86;61.71;100301.88;1708073;83;21967;-71
2022/06/02 00:15:36;;;;;;;12.25;6.03;;;;;;;20.84;61.71;100302.08;1706370;83;21028;-72
2022/06/02 00:18:08;;;;;;;12.47;6.22;;;;;;;20.83;61.74;100297.70;1705851;84;21056;-71
2022/06/02 00:20:49;;;;;;;12.53;6.17;;;;;;;20.78;61.80;100296.11;1704153;83;21091;-71
2022/06/02 00:23:44;;;;;;;9.80;6.50;;;;;;;20.74;61.79;100300.18;1705916;84;21079;-71
2022/06/02 00:26:47;;;;;;;14.80;6.70;;;;;;;20.72;61.84;100297.38;1705826;84;21959;-71
2022/06/02 00:29:21;;;;;;;;;;;;;;;20.68;61.81;100302.81;1705384;83;21047;-71
2022/06/02 00:32:09;;;;;;;12.25;6.45;;;;;;;20.61;61.85;100297.36;1705143;83;20215;-71
2022/06/02 00:35:05;;;;;;;10.03;6.30;;;;;;;20.56;61.84;100296.59;1685705;84;21305;-70
2022/06/02 00:37:52;;;;;;;13.03;6.72;;;;;;;20.53;61.66;100294.27;1705320;83;21582;-70
2022/06/02 00:40:19;;;;;;;12.98;6.30;;;;;;;20.51;61.58;100287.44;1702227;84;22364;-70
2022/06/02 00:43:21;;;;;;;10.85;6.50;;;;;;;20.49;61.41;100286.29;1705787;84;21068;-71
2022/06/02 00:45:53;;;;;;;11.35;6.95;;;;;;;20.49;61.30;100281.43;1683866;84;21431;-70
2022/06/02 00:48:31;;;;;;;14.20;6.83;;;;;;;20.45;61.21;100284.98;1705853;83;21055;-71
2022/06/02 00:51:09;;;;;;;10.20;6.47;;;;;;;20.40;61.19;100284.70;1704699;83;21031;-71
2022/06/02 00:57:30;;;;;;;12.95;6.42;;;;;;;20.40;61.13;100295.42;1705797;83;21516;-70
2022/06/02 00:59:48;;;;;;;;;;;;;;;20.35;61.00;100281.73;1642231;87;21057;-70
2022/06/02 01:02:16;;;;;;;9.08;5.80;;;;;;;20.34;60.91;100287.29;1632380;87;21620;-71
2022/06/02 01:04:43;;;;;;;9.13;5.40;;;;;;;20.29;60.88;100279.81;1679334;84;21057;-71
2022/06/02 01:07:23;;;;;;;7.58;5.58;;;;;;;20.30;60.83;100279.62;1711510;82;21949;-70
2022/06/02 01:10:12;;;;;;;9.38;5.42;;;;;;;20.32;60.75;100283.45;1682745;85;21308;-71
2022/06/02 01:12:53;;;;;;;13.03;5.65;;;;;;;20.34;60.56;100281.41;1681271;84;21026;-72
2022/06/02 01:16:00;;;;;;;11.12;5.30;;;;;;;20.33;60.43;100277.06;1670426;85;21022;-72
2022/06/02 01:18:49;;;;;;;11.63;5.40;;;;;;;20.32;60.42;100276.75;1749558;82;21019;-71
2022/06/02 01:21:45;;;;;;;6.05;4.97;;;;;;;20.30;60.45;100273.43;1698856;82;23174;-71
2022/06/02 01:24:44;;;;;;;11.30;5.25;;;;;;;20.27;60.44;100269.28;1747467;82;21013;-70
2022/06/02 01:27:51;;;;;;;9.08;5.35;;;;;;;20.24;60.48;100268.29;1731536;82;21279;-69
2022/06/02 01:30:50;;;;;;;14.38;5.25;;;;;;;20.21;60.49;100265.16;1731043;82;21547;-70
2022/06/02 01:33:50;;;;;;;9.08;5.22;;;;;;;20.17;60.53;100265.20;1730839;82;21066;-70
2022/06/02 01:36:44;;;;;;;12.05;4.90;;;;;;;20.12;60.64;100258.23;1715008;83;21786;-70
2022/06/02 01:39:54;;;;;;;10.48;5.20;;;;;;;20.10;60.60;100260.28;1730327;82;21499;-70
2022/06/02 01:42:48;;;;;;;12.78;4.65;;;;;;;20.09;60.54;100261.30;1695653;84;21078;-70
2022/06/02 01:45:53;;;;;;;9.30;4.62;;;;;;;20.04;61.00;100268.55;1675015;84;21044;-70
2022/06/02 01:48:40;;;;;;;9.33;4.60;;;;;;;19.86;61.24;100262.21;1731011;82;21132;-70
2022/06/02 01:51:20;;;;;;;8.13;4.50;;;;;;;19.80;61.46;100263.48;1695664;83;21868;-70
2022/06/02 01:54:16;;;;;;;8.75;5.00;;;;;;;19.76;61.57;100263.50;1730615;82;21356;-71
2022/06/02 01:57:11;;;;;;;10.00;4.78;;;;;;;19.67;61.68;100271.63;1695771;84;21031;-71
2022/06/02 01:59:50;;;;;;;11.35;6.35;;;;;;;19.55;62.07;100277.08;1730722;82;21843;-70
2022/06/02 02:03:07;;;;;;;12.58;6.47;;;;;;;19.48;62.84;100276.64;1691121;84;21050;-71
2022/06/02 02:06:25;;;;;;;9.98;7.50;;;;;;;19.44;63.28;100283.71;1730781;82;21964;-71
2022/06/02 02:09:14;;;;;;;10.28;7.45;;;;;;;19.37;63.79;100285.44;1695546;84;21250;-71
2022/06/02 02:11:53;;;;;;;10.82;7.40;;;;;;;19.36;63.90;100281.61;1694704;84;21286;-70
2022/06/02 02:14:38;;;;;;;11.60;8.25;;;;;;;19.35;64.08;100287.48;1694617;84;21099;-70
2022/06/02 02:17:16;;;;;;;11.57;7.95;;;;;;;19.31;64.45;100283.50;1690108;84;21807;-70
2022/06/02 02:20:03;;;;;;;9.73;7.33;;;;;;;19.28;64.58;100277.66;1689526;84;22692;-70
2022/06/02 02:22:53;;;;;;;11.90;7.45;;;;;;;19.27;64.65;100278.17;1689169;84;21020;-70
2022/06/02 02:25:42;;;;;;;13.83;8.45;;;;;;;19.27;64.70;100286.71;1689947;84;21353;-71
2022/06/02 02:28:43;;;;;;;9.33;8.35;;;;;;;19.26;64.89;100287.22;1690123;84;21071;-70
2022/06/02 02:31:47;;;;;;;9.68;8.08;;;;;;;19.22;65.12;100279.23;1690046;84;21044;-71
2022/06/02 02:34:27;;;;;;;10.88;8.13;;;;;;;19.18;65.34;100277.91;1690282;84;21912;-70
2022/06/02 02:37:14;;;;;;;11.40;8.25;;;;;;;19.16;65.43;100275.92;1645497;84;21304;-70
2022/06/02 02:40:01;;;;;;;11.10;8.18;;;;;;;19.15;65.60;100270.25;1689917;84;21064;-70
2022/06/02 02:42:37;;;;;;;10.98;8.43;;;;;;;19.15;65.78;100272.92;1689687;84;21032;-70
2022/06/02 02:45:29;;;;;;;14.28;8.43;;;;;;;19.14;65.97;100269.92;1689876;84;21031;-70
2022/06/02 02:48:39;;;;;;;11.60;8.03;;;;;;;19.11;66.02;100276.48;1689936;83;22255;-70
2022/06/02 02:51:21;;;;;;;11.38;8.78;;;;;;;19.12;66.18;100286.17;1690243;84;21287;-70
2022/06/02 02:53:53;;;;;;;10.18;8.80;;;;;;;19.11;66.47;100302.42;1690198;84;21294;-70
2022/06/02 02:56:31;;;;;;;10.58;8.40;;;;;;;19.10;66.78;100304.73;1690276;84;21569;-71
2022/06/02 02:59:24;;;;;;;13.90;8.10;;;;;;;19.13;66.87;100311.93;1689734;84;21453;-70
2022/06/02 03:02:17;;;;;;;12.68;8.23;;;;;;;19.18;66.87;100302.00;1690012;84;21920;-70
2022/06/02 03:05:27;;;;;;;9.00;7.47;;;;;;;19.16;66.79;100302.19;1690181;84;21112;-70
2022/06/02 03:08:02;;;;;;;13.28;8.90;;;;;;;19.15;66.82;100309.06;1690371;84;21531;-70
2022/06/02 03:10:36;;;;;;;13.40;8.60;;;;;;;19.13;66.79;100312.44;1682193;84;21100;-69
2022/06/02 03:13:09;;;;;;;11.08;9.03;;;;;;;19.09;66.99;100311.11;1690301;84;21022;-70
2022/06/02 03:15:56;;;;;;;11.85;9.08;;;;;;;19.06;67.22;100310.13;1682167;83;22055;-69
2022/06/02 03:18:47;;;;;;;13.40;9.30;;;;;;;19.04;67.44;100314.84;1701900;84;21520;-70
2022/06/02 03:21:26;;;;;;;12.23;8.73;;;;;;;19.04;67.56;100324.21;1695378;84;21723;-70
2022/06/02 03:24:19;;;;;;;10.20;8.43;;;;;;;19.08;67.57;100321.49;1702277;84;21032;-71
2022/06/02 03:27:13;;;;;;;12.60;8.38;;;;;;;19.12;67.56;100322.31;1702247;83;21526;-71
2022/06/02 03:29:43;;;;;;;;;;;;;;;19.18;67.63;100322.09;1704695;84;21801;-72
2022/06/02 03:32:42;;;;;;;13.00;8.63;;;;;;;19.19;67.60;100322.92;1701936;84;20891;-71
2022/06/02 03:35:17;;;;;;;12.33;8.33;;;;;;;19.19;67.65;100322.41;1702440;84;21048;-70
2022/06/02 03:38:11;;;;;;;11.40;8.65;;;;;;;19.24;67.68;100316.53;1681728;84;21139;-71
2022/06/02 03:41:01;;;;;;;14.47;8.98;;;;;;;19.27;67.65;100311.64;1690703;84;21076;-72
2022/06/02 03:43:58;;;;;;;11.43;8.93;;;;;;;19.34;67.62;100313.94;1700694;84;21567;-71
2022/06/02 03:46:45;;;;;;;11.55;8.73;;;;;;;19.40;67.58;100316.41;1702004;84;21733;-71
2022/06/02 03:49:52;;;;;;;14.98;9.13;;;;;;;19.47;67.53;100317.33;1690033;84;21697;-71
2022/06/02 03:52:39;;;;;;;17.07;8.85;;;;;;;19.55;67.43;100316.44;1690262;84;21737;-70
2022/06/02 03:55:32;;;;;;;11.57;8.55;;;;;;;19.59;67.49;100317.75;1682170;85;21327;-70
2022/06/02 03:58:39;;;;;;;13.20;8.58;;;;;;;19.64;67.36;100315.37;1687765;84;21892;-70
2022/06/02 04:01:09;;;;;;;11.75;8.45;;;;;;;19.74;67.12;100314.61;1702104;84;21324;-70
2022/06/02 04:04:01;;;;;;;11.68;8.40;;;;;;;19.86;66.95;100313.14;1690088;84;21026;-71
2022/06/02 04:06:42;;;;;;;14.03;7.37;;;;;;;19.94;66.75;100313.06;1682115;85;21733;-71
2022/06/02 04:09:35;;;;;;;11.75;7.97;;;;;;;20.06;66.46;100317.95;1682081;85;22066;-70
2022/06/02 04:15:31;;;;;;;14.83;7.70;;;;;;;20.29;66.13;100320.05;1692618;84;21699;-70
2022/06/02 04:18:20;;;;;;;11.63;7.37;;;;;;;20.41;65.71;100314.52;1702030;84;21072;-69
2022/06/02 04:21:19;;;;;;;10.50;7.05;;;;;;;20.55;65.21;100313.69;1694777;84;21306;-71
2022/06/02 04:28:39;;;;;;;14.43;7.20;;;;;;;20.78;64.36;100312.73;1714124;80;21005;-70
2022/06/02 04:31:31;;;;;;;11.13;7.53;;;;;;;20.92;63.99;100312.35;1690231;84;21059;-69
2022/06/02 04:34:35;;;;;;;13.45;8.10;;;;;;;21.00;63.63;100313.06;1690049;84;21518;-69
2022/06/02 04:37:44;;;;;;;10.45;7.40;;;;;;;21.09;63.24;100315.95;1690152;84;21023;-70
2022/06/02 04:40:32;;;;;;;11.78;7.50;;;;;;;21.19;63.18;100321.00;1690168;84;21054;-69
2022/06/02 04:43:12;;;;;;;14.33;7.35;;;;;;;21.30;62.77;100324.55;1682218;84;21783;-71
2022/06/02 04:46:02;;;;;;;11.45;7.28;;;;;;;21.40;62.42;100324.22;1681954;85;21024;-70
2022/06/02 04:48:37;;;;;;;11.88;6.60;;;;;;;21.51;62.09;100326.89;1690034;84;21034;-70
2022/06/02 04:51:31;;;;;;;14.00;6.70;;;;;;;21.60;61.97;100333.27;1690023;84;21075;-70
2022/06/02 04:54:48;;;;;;;12.78;6.53;;;;;;;21.70;61.73;100332.42;1651731;85;21095;-70
2022/06/02 04:57:39;;;;;;;11.25;6.17;;;;;;;21.82;61.22;100331.91;1681946;85;22050;-70
2022/06/02 05:00:29;;;;;;;8.90;6.00;;;;;;;21.94;60.95;100338.40;1690029;84;21066;-71
2022/06/02 05:03:16;;;;;;;9.58;5.87;;;;;;;22.05;60.32;100347.27;1682134;85;21013;-71
2022/06/02 05:05:57;;;;;;;11.68;5.42;;;;;;;22.19;59.87;100346.33;1690037;84;21543;-70
2022/06/02 05:08:46;;;;;;;10.78;5.70;;;;;;;22.31;59.12;100353.88;1652353;85;21766;-70
2022/06/02 05:11:46;;;;;;;12.50;5.40;;;;;;;22.40;58.72;100352.69;1682137;85;21976;-71
2022/06/02 05:14:43;;;;;;;11.22;5.53;;;;;;;22.50;58.32;100351.80;1702280;84;21032;-71
2022/06/02 05:17:48;;;;;;;12.73;5.20;;;;;;;22.60;57.69;100360.85;1689814;83;21110;-71
2022/06/02 05:20:45;;;;;;;8.98;5.25;;;;;;;22.67;57.24;100363.86;1701830;83;21310;-69
2022/06/02 05:23:47;;;;;;;10.82;5.70;;;;;;;22.78;56.84;100361.13;1682148;84;21358;-69
2022/06/02 05:26:31;;;;;;;9.18;5.28;;;;;;;22.87;56.64;100357.75;1682049;85;22353;-70
2022/06/02 05:29:10;;;;;;;8.63;5.83;;;;;;;22.96;56.46;100360.58;1681689;85;21040;-70
2022/06/02 05:32:08;;;;;;;9.40;5.62;;;;;;;23.04;56.57;100367.96;1682086;85;21286;-70
2022/06/02 05:34:57;;;;;;;9.98;5.30;;;;;;;23.12;56.37;100361.05;1698800;84;21315;-71
2022/06/02 05:38:03;;;;;;;8.90;5.25;;;;;;;23.24;56.24;100359.09;1702039;84;21378;-71
2022/06/02 05:40:38;;;;;;;11.05;5.12;;;;;;;23.33;56.10;100359.22;1701851;84;22350;-71
2022/06/02 05:43:36;;;;;;;11.65;5.87;;;;;;;23.42;55.77;100358.81;1702260;84;21548;-71
2022/06/02 05:46:33;;;;;;;12.25;6.28;;;;;;;23.51;55.28;100358.61;1702049;84;21024;-73
2022/06/02 05:49:26;;;;;;;9.68;5.85;;;;;;;23.54;55.16;100365.76;1701769;83;21076;-69
2022/06/02 05:52:27;;;;;;;10.85;5.40;;;;;;;23.59;54.97;100357.09;1690276;84;21342;-71
2022/06/02 05:55:27;;;;;;;10.43;5.40;;;;;;;23.65;54.92;100363.85;1689940;84;22097;-67
2022/06/02 05:58:45;;;;;;;9.53;5.37;;;;;;;23.76;54.59;100372.35;1639477;85;21048;-70
2022/06/02 06:01:42;;;;;;;10.58;5.45;;;;;;;23.84;54.46;100370.80;1689878;84;21077;-72
2022/06/02 06:04:54;;;;;;;9.70;5.40;;;;;;;23.89;53.85;100372.34;1689920;84;21083;-69
2022/06/02 06:07:46;;;;;;;11.53;5.65;;;;;;;23.81;53.91;100367.98;1690283;84;21034;-69
2022/06/02 06:10:54;;;;;;;13.05;5.83;;;;;;;23.84;54.41;100371.63;1690080;84;22355;-71
2022/06/02 06:13:49;;;;;;;12.15;5.47;;;;;;;23.90;54.40;100373.47;1689967;84;21078;-73
2022/06/02 06:16:34;;;;;;;9.45;5.03;;;;;;;23.93;53.91;100373.56;1674876;84;21092;-72
2022/06/02 06:19:37;;;;;;;12.18;5.53;;;;;;;23.93;54.14;100377.61;1712226;82;21343;-74
2022/06/02 06:22:30;;;;;;;9.73;6.10;;;;;;;24.01;54.46;100381.45;1677863;85;21470;-70
2022/06/02 06:25:17;;;;;;;10.70;6.08;;;;;;;24.12;54.25;100382.67;1701818;83;21866;-70
2022/06/02 06:28:16;;;;;;;8.08;5.67;;;;;;;24.15;54.01;100378.23;1712407;82;21302;-68
2022/06/02 06:31:13;;;;;;;13.00;6.12;;;;;;;24.23;54.31;100385.59;1712216;83;21064;-70
2022/06/02 06:33:54;;;;;;;10.03;6.05;;;;;;;24.36;54.20;100382.05;1712424;83;21048;-74
2022/06/02 06:36:47;;;;;;;9.60;6.35;;;;;;;24.45;54.17;100379.44;1712400;82;21047;-74
2022/06/02 06:39:26;;;;;;;9.40;5.58;;;;;;;24.57;53.75;100379.59;1702059;83;22689;-76
2022/06/02 06:42:23;;;;;;;10.53;6.35;;;;;;;24.63;53.76;100379.27;1688000;82;21532;-76
2022/06/02 06:44:57;;;;;;;11.57;6.28;;;;;;;24.73;53.78;100383.70;1712582;82;21069;-71
2022/06/02 06:47:44;;;;;;;9.45;5.83;;;;;;;24.87;53.45;100380.41;1712490;83;21484;-74
2022/06/02 06:50:19;;;;;;;13.80;6.30;;;;;;;24.98;53.22;100378.38;1712393;83;21532;-72
2022/06/02 06:53:12;;;;;;;12.40;6.67;;;;;;;25.05;52.85;100380.03;1710952;83;21889;-73
2022/06/02 06:55:58;;;;;;;11.28;6.40;;;;;;;25.09;52.78;100379.92;1712357;82;21077;-72
2022/06/02 06:58:48;;;;;;;10.43;5.87;;;;;;;25.17;52.99;100384.75;1712368;82;21757;-71
2022/06/02 07:01:29;;;;;;;12.20;6.35;;;;;;;25.26;52.63;100380.22;1712330;83;21093;-72
2022/06/02 07:04:37;;;;;;;11.57;6.78;;;;;;;25.37;52.62;100382.75;1712367;83;21044;-71
2022/06/02 07:07:15;;;;;;;14.20;6.03;;;;;;;25.48;52.42;100387.48;1678088;85;21947;-71
2022/06/02 07:10:06;;;;;;;9.58;6.15;;;;;;;25.60;52.31;100384.89;1711928;82;21068;-71
2022/06/02 07:12:58;;;;;;;13.95;7.03;;;;;;;25.74;52.51;100389.16;1712453;83;21028;-71
2022/06/02 07:15:41;;;;;;;10.82;6.72;;;;;;;25.90;52.33;100398.09;1705479;83;21028;-72
2022/06/02 07:18:52;;;;;;;12.68;6.70;;;;;;;26.04;51.63;100390.66;1722252;82;21108;-72
2022/06/02 07:21:36;;;;;;;12.93;6.85;;;;;;;26.04;51.54;100389.31;1687661;82;21969;-70
2022/06/02 07:24:47;;;;;;;8.43;6.58;;;;;;;26.09;52.09;100390.84;1717366;83;21083;-71
2022/06/02 07:27:47;;;;;;;12.00;7.03;;;;;;;26.21;52.13;100385.52;1722467;82;21092;-73
2022/06/02 07:30:41;;;;;;;11.18;7.00;;;;;;;26.36;51.92;100385.98;1720613;82;21909;-74
2022/06/02 07:33:35;;;;;;;9.63;6.90;;;;;;;26.48;51.86;100388.27;1693313;84;21947;-74
2022/06/02 07:36:45;;;;;;;9.97;6.53;;;;;;;26.60;51.99;100388.88;1721588;82;22028;-75
2022/06/02 07:39:55;;;;;;;10.50;6.33;;;;;;;26.70;51.60;100394.58;1722468;82;21715;-75
2022/06/02 07:42:38;;;;;;;9.88;5.80;;;;;;;26.77;50.99;100387.20;1690157;82;21023;-75
2022/06/02 07:45:26;;;;;;;11.12;5.70;;;;;;;26.84;50.19;100394.73;1661917;85;21104;-75
2022/06/02 07:48:14;;;;;;;12.80;5.60;;;;;;;26.90;49.31;100397.05;1664184;84;21088;-76
2022/06/02 07:50:55;;;;;;;8.10;4.95;;;;;;;26.95;48.56;100399.37;1681983;85;22247;-77
2022/06/02 07:53:43;;;;;;;9.73;5.03;;;;;;;26.97;47.94;100403.21;1700975;83;21056;-76
2022/06/02 07:56:34;;;;;;;8.43;4.10;;;;;;;26.93;47.38;100397.96;1701622;84;21064;-77
2022/06/02 08:03:28;;;;;;;7.33;3.55;;;;;;;27.01;45.68;100407.11;1690283;84;21055;-76
2022/06/02 08:06:09;;;;;;;8.50;3.92;;;;;;;27.08;46.38;100403.82;1690121;84;21880;-77
2022/06/02 08:08:57;;;;;;;11.65;3.90;;;;;;;27.22;45.20;100408.55;1679988;84;21297;-76
2022/06/02 08:11:51;;;;;;;7.58;3.87;;;;;;;27.29;44.96;100416.86;1680420;84;21056;-75
2022/06/02 08:14:47;;;;;;;9.33;3.85;;;;;;;27.34;44.96;100415.66;1689727;84;21486;-72
2022/06/02 08:17:27;;;;;;;7.15;3.52;;;;;;;27.40;44.35;100417.96;1689749;84;21059;-70
2022/06/02 08:20:12;;;;;;;8.45;3.42;;;;;;;27.46;44.64;100414.87;1689890;84;22403;-70
2022/06/02 08:23:26;;;;;;;11.63;4.15;;;;;;;27.58;44.36;100417.07;1681654;84;21087;-70
2022/06/02 08:26:08;;;;;;;9.10;3.70;;;;;;;27.68;44.71;100417.36;1690768;84;21083;-71
2022/06/02 08:29:11;;;;;;;12.80;3.43;;;;;;;28.07;44.26;100415.88;1658520;85;21592;-70
2022/06/02 08:32:01;;;;;;;6.28;3.45;;;;;;;28.07;44.26;100415.88;1702245;84;21087;-70
2022/06/02 08:35:15;;;;;;;8.03;3.47;;;;;;;28.30;42.74;100412.38;1702049;83;21928;-71
2022/06/02 08:38:15;;;;;;;10.25;3.27;;;;;;;28.39;42.05;100402.80;1701940;84;21028;-71
2022/06/02 08:44:36;;;;;;;6.03;3.45;;;;;;;28.70;41.46;100408.88;1701986;84;21044;-69
2022/06/02 08:47:46;;;;;;;8.75;3.37;;;;;;;28.82;41.49;100406.13;1701920;84;21554;-72
2022/06/02 08:50:51;;;;;;;7.90;3.17;;;;;;;28.97;40.68;100403.22;1690419;83;21671;-70
2022/06/02 08:54:10;;;;;;;7.28;3.30;;;;;;;29.08;39.71;100397.44;1679586;82;20963;-69
2022/06/02 08:57:13;;;;;;;9.18;3.87;;;;;;;29.02;40.30;100406.56;1689708;84;21668;-69
2022/06/02 09:00:02;;;;;;;9.53;3.77;;;;;;;29.01;41.07;100398.94;1681883;85;21052;-70
2022/06/02 09:02:49;;;;;;;6.67;3.42;;;;;;;29.12;41.13;100400.48;1682096;85;21358;-71
2022/06/02 09:05:49;;;;;;;9.85;3.83;;;;;;;29.24;41.29;100406.70;1702076;84;21854;-70
2022/06/02 09:09:09;;;;;;;10.45;4.00;;;;;;;29.36;41.11;100404.77;1702309;83;21746;-74
2022/06/02 09:12:05;;;;;;;12.80;4.08;;;;;;;29.49;41.55;100393.59;1701916;84;21547;-77
2022/06/02 09:15:04;;;;;;;8.20;3.90;;;;;;;29.58;40.49;100397.56;1702022;84;21172;-71
2022/06/02 09:18:00;;;;;;;7.95;3.60;;;;;;;29.58;40.49;100397.56;1701613;83;21028;-71
2022/06/02 09:20:35;;;;;;;8.63;3.70;;;;;;;29.59;40.00;100397.02;1702146;84;22392;-70
2022/06/02 09:23:29;;;;;;;7.22;3.40;;;;;;;29.60;40.66;100388.61;1701916;84;21858;-72
2022/06/02 09:26:18;;;;;;;8.48;3.27;;;;;;;29.67;40.52;100395.26;1702455;83;21036;-72
2022/06/02 09:29:20;;;;;;;5.80;3.15;;;;;;;29.75;40.09;100395.39;1701974;84;21780;-72
2022/06/02 09:32:04;;;;;;;7.15;3.30;;;;;;;29.71;40.25;100396.94;1702061;84;21072;-71
2022/06/02 09:34:44;;;;;;;5.47;3.22;;;;;;;29.79;40.49;100399.25;1692172;84;21961;-72
2022/06/02 09:37:29;;;;;;;9.60;3.80;;;;;;;30.00;39.54;100396.31;1701911;83;21268;-71
2022/06/02 09:40:02;;;;;;;10.05;3.62;;;;;;;30.11;39.82;100394.05;1701979;83;21302;-71
2022/06/02 09:42:54;;;;;;;6.87;3.30;;;;;;;30.29;39.20;100393.77;1681804;84;21680;-72
2022/06/02 09:45:42;;;;;;;7.37;3.50;;;;;;;30.43;38.97;100389.63;1702301;84;21490;-74
2022/06/02 09:48:26;;;;;;;9.48;3.62;;;;;;;30.62;39.12;100388.78;1702535;84;22585;-73
2022/06/02 09:51:34;;;;;;;13.38;3.55;;;;;;;30.83;38.30;100383.59;1701646;84;21352;-74
2022/06/02 09:54:27;;;;;;;7.28;3.10;;;;;;;30.98;38.40;100376.42;1702367;84;21017;-72
2022/06/02 10:00:43;;;;;;;7.70;2.85;;;;;;;31.45;37.38;100373.61;1704483;84;21072;-75
2022/06/02 10:03:38;;;;;;;9.55;3.40;;;;;;;31.57;37.14;100373.73;1690918;84;22258;-76
2022/06/02 10:06:52;;;;;;;12.53;3.50;;;;;;;31.46;36.83;100372.52;1682163;84;21024;-74
2022/06/02 10:09:57;;;;;;;10.13;3.22;;;;;;;31.38;37.57;100367.56;1689887;84;21234;-77
2022/06/02 10:12:58;;;;;;;9.28;3.10;;;;;;;31.53;37.37;100359.48;1690474;83;21042;-74
2022/06/02 10:16:03;;;;;;;10.43;3.42;;;;;;;31.45;37.48;100357.23;1653492;85;21096;-76
2022/06/02 10:18:37;;;;;;;8.08;3.25;;;;;;;31.26;37.44;100367.70;1689869;84;22641;-74
2022/06/02 10:21:24;;;;;;;10.72;3.33;;;;;;;31.02;37.68;100357.62;1682139;84;21085;-70
2022/06/02 10:24:16;;;;;;;10.65;3.22;;;;;;;30.98;38.01;100361.92;1690135;84;21143;-70
2022/06/02 10:27:28;;;;;;;12.75;3.72;;;;;;;31.01;38.54;100361.44;1690123;84;21019;-70
2022/06/02 10:30:30;;;;;;;7.47;3.17;;;;;;;31.08;38.16;100361.21;1689884;83;21098;-70
2022/06/02 10:33:42;;;;;;;9.63;3.50;;;;;;;31.11;38.08;100349.27;1672502;83;22142;-73
2022/06/02 10:36:40;;;;;;;10.45;3.50;;;;;;;31.17;38.21;100344.66;1689738;84;21288;-72
2022/06/02 10:39:34;;;;;;;7.80;3.00;;;;;;;31.33;37.68;100343.22;1689965;84;21092;-73
2022/06/02 10:42:22;;;;;;;11.50;3.20;;;;;;;31.41;37.22;100331.55;1681913;84;21309;-73
2022/06/02 10:45:25;;;;;;;11.78;3.40;;;;;;;31.48;36.48;100335.71;1682044;85;21087;-72
2022/06/02 10:48:15;;;;;;;8.55;3.30;;;;;;;31.50;35.61;100327.26;1625639;86;22360;-72
2022/06/02 10:51:22;;;;;;;7.33;3.02;;;;;;;31.56;35.55;100322.95;1693284;83;21070;-72
2022/06/02 10:54:31;;;;;;;6.33;2.87;;;;;;;31.76;35.85;100324.21;1688974;83;21454;-72
2022/06/02 10:57:27;;;;;;;8.10;3.00;;;;;;;32.08;35.29;100317.29;1681863;85;21075;-74
2022/06/02 11:00:18;;;;;;;8.20;3.17;;;;;;;32.42;34.79;100308.17;1680188;84;20960;-72
2022/06/02 11:03:44;;;;;;;6.75;2.75;;;;;;;32.67;33.66;100307.44;1701733;83;22867;-73
2022/06/02 11:06:38;;;;;;;5.65;3.17;;;;;;;32.91;33.93;100305.90;1703922;83;21314;-74
2022/06/02 11:09:33;;;;;;;6.78;2.83;;;;;;;33.11;33.47;100297.44;1736055;82;21131;-71
2022/06/02 11:12:51;;;;;;;10.80;2.80;;;;;;;33.35;33.23;100295.78;1725499;82;21753;-71
2022/06/02 11:15:47;;;;;;;11.78;2.87;;;;;;;33.38;32.50;100292.52;1722237;83;21024;-72
2022/06/02 11:18:29;;;;;;;9.73;2.72;;;;;;;33.52;30.61;100290.06;1689565;84;22003;-71
2022/06/02 11:21:12;;;;;;;7.53;2.67;;;;;;;33.61;31.26;100285.66;1681796;85;21386;-71
2022/06/02 11:24:05;;;;;;;8.88;2.98;;;;;;;33.74;30.93;100281.52;1681826;85;21571;-72
2022/06/02 11:27:14;;;;;;;9.53;2.80;;;;;;;33.72;30.42;100277.69;1690200;83;21074;-73
2022/06/02 11:29:57;;;;;;;9.23;3.02;;;;;;;33.59;30.46;100274.17;1689601;84;21043;-73
2022/06/02 11:32:42;;;;;;;8.58;2.55;;;;;;;33.64;30.89;100267.84;1689571;84;21956;-73
2022/06/02 11:35:42;;;;;;;7.33;2.60;;;;;;;33.69;30.84;100256.89;1681697;84;21325;-72
2022/06/02 11:38:20;;;;;;;11.30;3.10;;;;;;;33.93;31.21;100260.67;1681690;85;21032;-72
2022/06/02 11:41:27;;;;;;;6.20;2.58;;;;;;;34.39;31.31;100261.89;1662210;85;21072;-74
2022/06/02 11:44:09;;;;;;;7.10;2.60;;;;;;;34.75;30.08;100269.91;1689849;82;21043;-71
2022/06/02 11:47:31;;;;;;;6.92;2.60;;;;;;;34.84;29.06;100267.65;1689797;84;22441;-73
2022/06/02 11:50:23;;;;;;;5.92;2.47;;;;;;;34.86;28.97;100263.24;1689754;84;21469;-74
2022/06/02 11:53:16;;;;;;;7.03;2.58;;;;;;;34.87;28.59;100274.48;1689566;83;21565;-72
2022/06/02 11:55:57;;;;;;;7.70;2.67;;;;;;;34.78;29.23;100272.08;1689996;84;21888;-72
2022/06/02 11:58:58;;;;;;;13.20;2.95;;;;;;;34.98;28.80;100276.08;1690409;83;21034;-74
2022/06/02 12:01:47;;;;;;;6.10;2.10;;;;;;;34.91;28.27;100274.20;1681806;83;21862;-75
2022/06/02 12:04:43;;;;;;;6.12;2.10;;;;;;;34.89;28.60;100278.61;1690248;83;21023;-74
2022/06/02 12:07:42;;;;;;;7.10;2.67;;;;;;;35.06;28.22;100276.02;1682056;84;21511;-75
2022/06/02 12:10:42;;;;;;;6.83;2.27;;;;;;;35.24;27.40;100281.64;1690015;83;21717;-73
2022/06/02 12:13:40;;;;;;;7.78;2.05;;;;;;;35.36;27.84;100282.62;1681778;84;21793;-73
2022/06/02 12:16:32;;;;;;;7.60;2.22;;;;;;;35.40;26.17;100283.70;1684801;83;22829;-72
2022/06/02 12:19:26;;;;;;;5.62;2.22;;;;;;;35.38;26.41;100287.30;1667731;85;21065;-70
2022/06/02 12:22:31;;;;;;;6.20;1.95;;;;;;;35.29;26.51;100281.58;1711410;82;21048;-71
2022/06/02 12:25:42;;;;;;;4.62;1.80;;;;;;;35.12;26.23;100281.16;1676884;85;21067;-72
2022/06/02 12:28:27;;;;;;;4.65;1.80;;;;;;;34.80;25.62;100281.66;1711214;82;21960;-73
2022/06/02 12:31:22;;;;;;;6.53;2.00;;;;;;;34.50;26.22;100279.10;1711722;83;21854;-72
2022/06/02 12:34:06;;;;;;;4.70;1.60;;;;;;;34.54;26.50;100276.88;1711978;82;21115;-72
2022/06/02 12:36:47;;;;;;;5.95;2.20;;;;;;;34.80;25.22;100273.42;1705321;83;21031;-72
2022/06/02 12:39:46;;;;;;;9.95;1.85;;;;;;;34.35;26.38;100262.13;1712347;83;21073;-72
2022/06/02 12:43:07;;;;;;;6.67;1.90;;;;;;;34.32;27.39;100262.16;1712214;83;21717;-73
2022/06/02 12:46:00;;;;;;;5.03;1.87;;;;;;;34.33;26.39;100260.23;1712163;83;21854;-72
2022/06/02 12:49:01;;;;;;;3.83;1.87;;;;;;;33.96;27.71;100254.63;1677616;85;21527;-73
2022/06/02 12:52:00;;;;;;;7.53;1.95;;;;;;;34.12;28.31;100247.17;1712315;82;21606;-73
2022/06/02 12:54:41;;;;;;;10.48;2.20;;;;;;;34.41;27.02;100248.70;1712508;82;21504;-73
2022/06/02 12:57:39;;;;;;;5.92;1.98;;;;;;;34.29;26.85;100241.34;1708619;82;21111;-73
2022/06/02 13:00:26;;;;;;;4.95;1.75;;;;;;;34.04;26.81;100241.72;1712234;83;21927;-74
2022/06/02 13:03:42;;;;;;;4.85;1.85;;;;;;;33.91;28.19;100234.66;1712089;83;21033;-73
2022/06/02 13:06:49;;;;;;;6.20;2.10;;;;;;;34.25;27.95;100234.77;1677889;85;21012;-72
2022/06/02 13:09:44;;;;;;;10.85;2.00;;;;;;;34.68;28.20;100231.81;1678064;85;21336;-72
2022/06/02 13:12:37;;;;;;;4.35;2.10;;;;;;;34.91;27.44;100239.89;1677969;85;21031;-72
2022/06/02 13:15:12;;;;;;;6.85;2.33;;;;;;;34.68;27.45;100232.63;1712190;83;21846;-72
2022/06/02 13:18:13;;;;;;;6.12;2.25;;;;;;;34.47;27.63;100225.64;1701451;83;21488;-72
2022/06/02 13:21:22;;;;;;;6.05;2.00;;;;;;;34.21;27.62;100229.59;1677949;85;21751;-72
2022/06/02 13:24:02;;;;;;;6.62;2.37;;;;;;;34.09;28.63;100222.52;1677865;85;21079;-71
2022/06/02 13:27:03;;;;;;;7.42;2.30;;;;;;;34.34;28.92;100227.59;1711582;82;20993;-71
2022/06/02 13:29:48;;;;;;;6.33;2.08;;;;;;;34.52;28.26;100233.83;1677911;85;21219;-71
2022/06/02 13:32:35;;;;;;;6.42;2.22;;;;;;;34.53;29.02;100227.23;1685580;82;21020;-72
2022/06/02 13:35:31;;;;;;;9.18;2.60;;;;;;;34.51;28.68;100234.94;1712178;82;21750;-71
2022/06/02 13:38:36;;;;;;;9.23;2.35;;;;;;;34.18;28.96;100232.36;1712407;83;21052;-72
2022/06/02 13:41:25;;;;;;;10.58;2.60;;;;;;;33.94;30.37;100228.06;1712214;83;21476;-72